Terminal Aerodrome Forecast
Issued by NWS Austin/San Antonio, TX

Home | Current Version | Previous Version | Text Only | Print | Product List | Glossary On
Versions: 1 2 3 4 5 6 7 8 9 10 11 12 13 14 15 16 17 18
000
FTUS44 KEWX 032339
TAFAUS
TAF
KAUS 032339Z 0400/0506 18010KT P6SM FEW060 BKN250
     FM040700 18005KT P6SM BKN012
     FM040900 19005KT 6SM BR BKN008
     FM041100 18004KT 4SM BR OVC007
     FM041400 19007KT P6SM BKN015 BKN030
     FM041600 17012KT P6SM SCT035 SCT250
     FM042100 17015KT P6SM SCT050=

USA.gov is the U.S. government's official web portal to all federal, state and local government web resources and services.